createdAt,value
2018-03-20T00:02:08.629Z,25.92
2018-03-20T00:04:37.181Z,25.40
2018-03-20T00:07:05.735Z,26.94
2018-03-20T00:09:34.425Z,25.79
2018-03-20T00:12:02.978Z,26.03
2018-03-20T00:14:32.306Z,25.93
2018-03-20T00:17:00.933Z,25.94
2018-03-20T00:19:29.493Z,25.54
2018-03-20T00:21:58.056Z,24.76
2018-03-20T00:24:27.808Z,25.17
2018-03-20T00:26:56.366Z,26.14
2018-03-20T00:29:24.925Z,24.81
2018-03-20T00:31:54.480Z,26.49
2018-03-20T00:34:23.032Z,25.38
2018-03-20T00:36:51.606Z,24.40
2018-03-20T00:39:21.251Z,25.08
2018-03-20T00:41:49.802Z,25.66
2018-03-20T00:44:18.348Z,26.03
2018-03-20T00:46:47.214Z,25.97
2018-03-20T00:49:15.766Z,25.26
2018-03-20T00:51:44.329Z,24.60
2018-03-20T00:54:13.704Z,24.61
2018-03-20T00:56:42.289Z,26.34
2018-03-20T00:59:10.845Z,24.87
2018-03-20T01:01:39.738Z,24.67
2018-03-20T01:04:08.297Z,23.19
2018-03-20T01:06:36.875Z,25.34
2018-03-20T01:09:05.549Z,23.88
2018-03-20T01:11:34.096Z,24.39
2018-03-20T01:14:02.657Z,23.95
2018-03-20T01:16:31.351Z,24.30
2018-03-20T01:18:59.929Z,24.63
2018-03-20T01:21:28.486Z,25.69
2018-03-20T01:23:57.144Z,24.30
2018-03-20T01:26:25.701Z,25.36
2018-03-20T01:28:55.038Z,25.42
2018-03-20T01:31:23.972Z,25.09
2018-03-20T01:33:52.529Z,24.19
2018-03-20T01:36:21.084Z,23.94
2018-03-20T01:38:49.699Z,23.98
2018-03-20T01:41:18.258Z,23.80
2018-03-20T01:43:46.826Z,24.09
2018-03-20T01:46:16.196Z,24.68
2018-03-20T01:48:44.753Z,23.67
2018-03-20T01:51:13.316Z,23.90
2018-03-20T01:53:42.132Z,22.75
2018-03-20T01:56:10.687Z,24.22
2018-03-20T01:58:39.278Z,23.18
2018-03-20T02:01:08.189Z,23.27
2018-03-20T02:03:36.741Z,23.14
2018-03-20T02:06:05.322Z,23.40
2018-03-20T02:08:34.012Z,23.02
2018-03-20T02:11:02.598Z,23.20
2018-03-20T02:13:31.187Z,22.53
2018-03-20T02:16:00.008Z,23.50
2018-03-20T02:18:28.561Z,23.45
2018-03-20T02:20:57.128Z,23.16
2018-03-20T02:23:26.353Z,23.85
2018-03-20T02:25:54.909Z,22.80
2018-03-20T02:28:23.459Z,23.71
2018-03-20T02:30:52.081Z,23.15
2018-03-20T02:33:20.652Z,23.97
2018-03-20T02:35:49.210Z,22.75
2018-03-20T02:38:18.593Z,22.73
2018-03-20T02:40:47.156Z,23.29
2018-03-20T02:43:15.706Z,22.10
2018-03-20T02:45:44.533Z,21.59
2018-03-20T02:48:13.093Z,21.44
2018-03-20T02:50:41.659Z,22.21
2018-03-20T02:53:10.289Z,22.12
2018-03-20T02:55:38.840Z,20.43
2018-03-20T02:58:07.397Z,21.22
2018-03-20T03:00:36.781Z,20.79
2018-03-20T03:03:06.119Z,20.20
2018-03-20T03:05:35.621Z,21.63
2018-03-20T03:08:04.451Z,19.84
2018-03-20T03:10:33.021Z,20.79
2018-03-20T03:13:01.572Z,20.25
2018-03-20T03:15:30.952Z,20.08
2018-03-20T03:18:00.273Z,21.13
2018-03-20T03:20:29.591Z,19.92
2018-03-20T03:22:58.201Z,20.85
2018-03-20T03:25:26.776Z,20.86
2018-03-20T03:27:55.389Z,21.30
2018-03-20T03:30:24.002Z,21.66
2018-03-20T03:32:53.326Z,21.46
2018-03-20T03:35:21.886Z,22.91
2018-03-20T03:37:51.384Z,21.93
2018-03-20T03:40:20.706Z,22.10
2018-03-20T03:42:49.282Z,21.94
2018-03-20T03:45:18.736Z,23.16
2018-03-20T03:47:47.291Z,22.40
2018-03-20T03:50:15.852Z,21.88
2018-03-20T03:52:45.214Z,22.48
2018-03-20T03:55:13.795Z,22.14
2018-03-20T03:57:42.341Z,21.08
2018-03-20T04:00:11.033Z,21.67
2018-03-20T04:02:39.596Z,21.83
2018-03-20T04:05:08.185Z,20.93
2018-03-20T04:07:36.977Z,20.47
2018-03-20T04:10:06.369Z,20.68
2018-03-20T04:12:34.929Z,20.82
2018-03-20T04:15:03.744Z,21.52
2018-03-20T04:17:32.297Z,21.51
2018-03-20T04:20:00.848Z,21.16
2018-03-20T04:22:30.245Z,20.17
2018-03-20T04:24:59.618Z,21.67
2018-03-20T04:27:28.167Z,20.72
2018-03-20T04:29:57.049Z,20.74
2018-03-20T04:32:26.369Z,21.80
2018-03-20T04:34:54.912Z,21.11
2018-03-20T04:37:25.197Z,21.74
2018-03-20T04:39:53.744Z,21.37
2018-03-20T04:42:22.292Z,20.88
2018-03-20T04:44:51.047Z,20.18
2018-03-20T04:47:19.606Z,20.82
2018-03-20T04:49:48.173Z,21.93
2018-03-20T04:52:16.772Z,20.73
2018-03-20T04:54:45.349Z,20.96
2018-03-20T04:57:13.897Z,21.66
2018-03-20T04:59:42.756Z,22.12
2018-03-20T05:02:11.307Z,21.44
2018-03-20T05:04:39.862Z,21.02
2018-03-20T05:07:09.232Z,21.71
2018-03-20T05:09:37.782Z,22.55
2018-03-20T05:12:06.375Z,21.41
2018-03-20T05:14:34.983Z,21.43
2018-03-20T05:17:03.566Z,20.66
2018-03-20T05:19:32.916Z,21.95
2018-03-20T05:22:07.624Z,22.28
2018-03-20T05:24:36.988Z,21.63
2018-03-20T05:27:05.578Z,22.60
2018-03-20T05:29:34.218Z,22.53
2018-03-20T05:32:02.809Z,22.61
2018-03-20T05:34:31.439Z,23.08
2018-03-20T05:37:00.073Z,23.16
2018-03-20T05:39:28.649Z,23.02
2018-03-20T05:41:57.246Z,23.24
2018-03-20T05:44:25.869Z,22.67
2018-03-20T05:47:08.161Z,23.08
2018-03-20T05:49:42.242Z,23.26
2018-03-20T05:52:10.837Z,23.62
2018-03-20T05:54:39.411Z,23.81
2018-03-20T05:57:08.204Z,23.40
2018-03-20T05:59:36.754Z,22.99
2018-03-20T06:02:05.310Z,23.74
2018-03-20T06:04:34.769Z,23.55
2018-03-20T06:07:03.329Z,23.96
2018-03-20T06:09:31.897Z,23.60
2018-03-20T06:12:00.520Z,22.96
2018-03-20T06:14:29.090Z,22.98
2018-03-20T06:16:57.695Z,23.32
2018-03-20T06:19:26.333Z,22.12
2018-03-20T06:21:54.920Z,22.64
2018-03-20T06:24:23.485Z,23.46
2018-03-20T06:26:53.151Z,23.24
2018-03-20T06:29:21.721Z,22.65
2018-03-20T06:31:50.276Z,23.04
2018-03-20T06:34:18.911Z,23.16
2018-03-20T06:36:47.482Z,22.54
2018-03-20T06:39:16.041Z,23.26
2018-03-20T06:41:44.850Z,22.52
2018-03-20T06:44:13.402Z,23.55
2018-03-20T06:46:41.953Z,24.44
2018-03-20T06:49:11.341Z,23.22
2018-03-20T06:51:39.910Z,23.87
2018-03-20T06:54:08.555Z,24.48
2018-03-20T06:56:37.283Z,24.66
2018-03-20T06:59:05.851Z,26.23
2018-03-20T07:01:34.415Z,24.92
2018-03-20T07:04:03.032Z,24.62
2018-03-20T07:06:31.603Z,24.15
2018-03-20T07:09:00.929Z,25.12
2018-03-20T07:11:29.538Z,24.17
2018-03-20T07:13:58.865Z,23.90
2018-03-20T07:16:27.427Z,25.35
2018-03-20T07:18:56.141Z,26.60
2018-03-20T07:21:24.709Z,25.89
2018-03-20T07:23:53.275Z,25.08
2018-03-20T07:26:22.654Z,26.53
2018-03-20T07:28:51.220Z,28.14
2018-03-20T07:31:20.549Z,27.00
2018-03-20T07:33:50.672Z,26.43
2018-03-20T07:36:19.998Z,26.39
2018-03-20T07:38:48.563Z,26.76
2018-03-20T07:41:17.960Z,26.39
2018-03-20T07:43:47.285Z,27.48
2018-03-20T07:46:15.853Z,26.26
2018-03-20T07:48:45.414Z,26.76
2018-03-20T07:51:13.977Z,25.96
2018-03-20T07:53:42.540Z,25.91
2018-03-20T07:56:11.373Z,28.92
2018-03-20T07:58:39.925Z,26.42
2018-03-20T08:01:09.236Z,25.78
2018-03-20T08:03:38.142Z,26.69
2018-03-20T08:06:06.701Z,26.79
2018-03-20T08:08:35.274Z,26.83
2018-03-20T08:11:03.899Z,28.48
2018-03-20T08:13:33.291Z,28.44
2018-03-20T08:16:01.854Z,26.01
2018-03-20T08:18:30.666Z,26.51
2018-03-20T08:20:59.228Z,28.87
2018-03-20T08:23:27.786Z,28.61
2018-03-20T08:25:57.150Z,27.97
2018-03-20T08:28:25.712Z,28.10
2018-03-20T08:30:54.261Z,27.82
2018-03-20T08:33:23.141Z,27.90
2018-03-20T08:35:52.458Z,28.65
2018-03-20T08:38:21.005Z,28.65
2018-03-20T08:40:49.605Z,28.09
2018-03-20T08:43:28.109Z,29.39
2018-03-20T08:45:57.473Z,27.87
2018-03-20T08:48:26.013Z,28.92
2018-03-20T08:50:54.905Z,29.75
2018-03-20T08:53:24.265Z,29.74
2018-03-20T08:55:52.824Z,29.04
2018-03-20T08:58:21.368Z,29.38
2018-03-20T09:00:51.078Z,28.89
2018-03-20T09:03:19.653Z,29.65
2018-03-20T09:05:48.965Z,30.92
2018-03-20T09:08:17.797Z,30.18
2018-03-20T09:10:46.346Z,30.50
2018-03-20T09:13:14.897Z,29.71
2018-03-20T09:15:43.497Z,30.53
2018-03-20T09:18:12.817Z,30.21
2018-03-20T09:20:41.373Z,29.89
2018-03-20T09:23:09.974Z,29.56
2018-03-20T09:25:38.538Z,30.72
2018-03-20T09:28:07.089Z,32.80
2018-03-20T09:30:36.478Z,31.40
2018-03-20T09:33:05.042Z,30.78
2018-03-20T09:35:33.658Z,31.33
2018-03-20T09:38:03.017Z,31.22
2018-03-20T09:40:32.360Z,30.57
2018-03-20T09:43:01.825Z,31.70
2018-03-20T09:45:30.517Z,31.00
2018-03-20T09:47:59.833Z,30.94
2018-03-20T09:50:28.422Z,30.93
2018-03-20T09:52:59.641Z,33.26
2018-03-20T09:55:28.206Z,30.86
2018-03-20T09:57:56.761Z,30.76
2018-03-20T10:00:26.421Z,31.23
2018-03-20T10:02:54.977Z,32.19
2018-03-20T10:05:23.554Z,31.91
2018-03-20T10:07:52.160Z,32.25
2018-03-20T10:10:20.710Z,33.36
2018-03-20T10:12:49.256Z,31.24
2018-03-20T10:15:17.869Z,32.83
2018-03-20T10:17:46.418Z,31.73
2018-03-20T10:20:15.039Z,32.64
2018-03-20T10:22:43.628Z,32.09
2018-03-20T10:25:12.186Z,32.94
2018-03-20T10:27:40.807Z,33.58
2018-03-20T10:30:09.692Z,32.95
2018-03-20T10:32:38.245Z,32.34
2018-03-20T10:35:06.801Z,32.64
2018-03-20T10:37:36.555Z,33.27
2018-03-20T10:40:05.140Z,31.69
2018-03-20T10:42:33.697Z,34.22
2018-03-20T10:45:02.306Z,33.80
2018-03-20T10:47:30.886Z,32.75
2018-03-20T10:49:59.545Z,33.27
2018-03-20T10:52:28.336Z,33.28
2018-03-20T10:54:56.888Z,33.10
2018-03-20T10:57:25.443Z,34.25
2018-03-20T10:59:54.332Z,31.94
2018-03-20T11:05:20.298Z,32.93
2018-03-20T11:07:49.060Z,34.06
2018-03-20T11:10:17.621Z,32.60
2018-03-20T11:12:46.233Z,35.53
2018-03-20T11:15:14.784Z,33.84
2018-03-20T11:17:43.341Z,37.39
2018-03-20T11:20:12.897Z,34.14
2018-03-20T11:22:41.456Z,34.79
2018-03-20T11:25:10.013Z,35.23
2018-03-20T11:27:39.478Z,34.05
2018-03-20T11:30:08.033Z,36.72
2018-03-20T11:32:36.740Z,33.40
2018-03-20T11:35:05.838Z,35.43
2018-03-20T11:37:34.518Z,34.01
2018-03-20T11:40:03.203Z,33.84
2018-03-20T11:42:32.144Z,33.95
2018-03-20T11:45:01.496Z,35.39
2018-03-20T11:47:30.084Z,32.04
2018-03-20T11:49:59.076Z,32.65
2018-03-20T11:52:27.717Z,31.95
2018-03-20T11:54:56.432Z,32.43
2018-03-20T11:57:25.321Z,33.33
2018-03-20T11:59:53.967Z,33.19
2018-03-20T12:02:23.428Z,34.14
2018-03-20T12:04:52.160Z,34.27
2018-03-20T12:07:20.897Z,32.91
2018-03-20T12:09:49.692Z,33.79
2018-03-20T12:12:18.477Z,34.01
2018-03-20T12:14:47.026Z,34.20
2018-03-20T12:17:15.693Z,33.62
2018-03-20T12:19:45.183Z,-141.92
2018-03-20T12:22:14.604Z,-141.92
2018-03-20T12:24:44.074Z,-141.92
2018-03-20T12:27:13.050Z,-141.92
2018-03-20T12:29:41.833Z,-141.92
2018-03-20T12:32:10.519Z,-141.92
2018-03-20T12:34:39.315Z,35.44
2018-03-20T12:37:08.001Z,33.26
2018-03-20T12:39:36.687Z,34.10
2018-03-20T12:42:05.363Z,33.37
2018-03-20T12:44:34.058Z,36.29
2018-03-20T12:47:02.744Z,35.06
2018-03-20T12:49:31.724Z,36.23
2018-03-20T12:52:00.426Z,36.45
2018-03-20T12:54:29.117Z,36.13
2018-03-20T12:56:57.894Z,35.71
2018-03-20T12:59:26.579Z,36.93
2018-03-20T13:01:55.266Z,35.58
2018-03-20T13:04:24.049Z,35.96
2018-03-20T13:06:52.737Z,35.86
2018-03-20T13:09:21.420Z,35.96
2018-03-20T13:11:50.216Z,35.37
2018-03-20T13:14:18.902Z,36.07
2018-03-20T13:16:47.582Z,35.24
2018-03-20T13:19:16.285Z,35.88
2018-03-20T13:21:45.772Z,35.24
2018-03-20T13:24:14.407Z,35.68
2018-03-20T13:26:43.143Z,34.97
2018-03-20T13:29:11.829Z,36.97
2018-03-20T13:31:40.460Z,35.38
2018-03-20T13:34:09.929Z,35.39
2018-03-20T13:36:38.601Z,36.37
2018-03-20T13:39:07.295Z,35.18
2018-03-20T13:41:36.132Z,36.73
2018-03-20T13:44:05.573Z,35.70
2018-03-20T13:46:34.274Z,35.38
2018-03-20T13:49:03.011Z,37.09
2018-03-20T13:51:31.745Z,36.94
2018-03-20T13:54:00.478Z,36.20
2018-03-20T13:56:30.135Z,35.53
2018-03-20T13:58:58.783Z,36.03
2018-03-20T14:01:27.508Z,36.61
2018-03-20T14:03:56.672Z,35.50
2018-03-20T14:06:25.395Z,35.46
2018-03-20T14:08:54.031Z,35.64
2018-03-20T14:11:23.074Z,34.52
2018-03-20T14:13:51.716Z,36.26
2018-03-20T14:16:20.445Z,35.01
2018-03-20T14:18:49.179Z,35.74
2018-03-20T14:21:17.915Z,34.95
2018-03-20T14:23:46.502Z,37.27
2018-03-20T14:26:15.232Z,36.25
2018-03-20T14:28:44.646Z,34.57
2018-03-20T14:31:13.269Z,36.73
2018-03-20T14:33:42.182Z,36.52
2018-03-20T14:36:10.777Z,37.11
2018-03-20T14:38:39.470Z,37.16
2018-03-20T14:41:08.565Z,37.68
2018-03-20T14:43:37.206Z,37.31
2018-03-20T14:46:05.937Z,39.09
2018-03-20T14:48:35.434Z,37.77
2018-03-20T14:51:04.088Z,35.56
2018-03-20T14:53:32.884Z,36.76
2018-03-20T14:56:01.825Z,36.86
2018-03-20T14:58:31.292Z,35.57
2018-03-20T15:01:00.058Z,35.39
2018-03-20T15:03:28.856Z,34.95
2018-03-20T15:05:57.640Z,36.15
2018-03-20T15:08:26.290Z,35.79
2018-03-20T15:10:55.158Z,34.77
2018-03-20T15:13:24.625Z,36.75
2018-03-20T15:15:53.304Z,36.01
2018-03-20T15:18:22.280Z,34.72
2018-03-20T15:20:50.986Z,35.09
2018-03-20T15:23:19.674Z,34.24
2018-03-20T15:25:48.357Z,35.10
2018-03-20T15:28:17.040Z,36.05
2018-03-20T15:30:45.682Z,34.88
2018-03-20T15:33:14.620Z,37.21
2018-03-20T15:35:43.265Z,36.39
2018-03-20T15:38:11.992Z,36.70
2018-03-20T15:40:40.678Z,36.59
2018-03-20T15:43:09.365Z,34.30
2018-03-20T15:45:38.149Z,36.43
2018-03-20T15:48:06.942Z,36.11
2018-03-20T15:50:35.630Z,35.20
2018-03-20T15:53:04.206Z,35.02
2018-03-20T15:55:33.232Z,34.67
2018-03-20T15:58:01.994Z,33.37
2018-03-20T16:00:30.620Z,33.87
2018-03-20T16:03:00.385Z,35.27
2018-03-20T16:05:29.057Z,35.51
2018-03-20T16:07:57.758Z,34.87
2018-03-20T16:10:26.744Z,32.98
2018-03-20T16:12:55.436Z,32.10
2018-03-20T16:15:24.080Z,32.48
2018-03-20T16:17:52.808Z,33.18
2018-03-20T16:20:21.493Z,34.05
2018-03-20T16:22:50.198Z,33.75
2018-03-20T16:25:18.879Z,34.85
2018-03-20T16:27:47.453Z,34.19
2018-03-20T16:30:16.085Z,34.09
2018-03-20T16:32:45.782Z,34.04
2018-03-20T16:35:15.203Z,33.74
2018-03-20T16:37:43.928Z,33.39
2018-03-20T16:40:12.922Z,33.27
2018-03-20T16:42:41.509Z,33.06
2018-03-20T16:45:10.195Z,31.73
2018-03-20T16:47:39.353Z,31.97
2018-03-20T16:50:08.081Z,31.83
2018-03-20T16:52:36.772Z,31.92
2018-03-20T16:55:05.718Z,32.45
2018-03-20T16:57:34.340Z,31.05
2018-03-20T17:00:02.923Z,31.96
2018-03-20T17:02:31.709Z,31.56
2018-03-20T17:05:00.342Z,30.51
2018-03-20T17:07:29.661Z,29.35
2018-03-20T17:09:58.690Z,29.21
2018-03-20T17:12:27.455Z,27.63
2018-03-20T17:14:56.139Z,29.89
2018-03-20T17:17:25.134Z,29.29
2018-03-20T17:19:53.818Z,29.89
2018-03-20T17:22:22.771Z,29.73
2018-03-20T17:24:51.773Z,29.72
2018-03-20T17:27:20.329Z,28.95
2018-03-20T17:29:49.747Z,29.17
2018-03-20T17:32:18.476Z,29.46
2018-03-20T17:34:47.162Z,29.49
2018-03-20T17:37:15.847Z,28.61
2018-03-20T17:39:44.832Z,29.11
2018-03-20T17:42:13.489Z,28.23
2018-03-20T17:44:42.211Z,29.19
2018-03-20T17:47:10.899Z,28.46
2018-03-20T17:49:39.593Z,27.58
2018-03-20T17:52:08.287Z,28.95
2018-03-20T17:54:37.201Z,30.20
2018-03-20T17:57:06.660Z,30.07
2018-03-20T17:59:35.311Z,30.10
2018-03-20T18:02:05.161Z,31.05
2018-03-20T18:04:33.796Z,30.34
2018-03-20T18:07:02.535Z,30.75
2018-03-20T18:09:31.221Z,31.13
2018-03-20T18:12:01.442Z,30.61
2018-03-20T18:14:30.095Z,31.39
2018-03-20T18:16:58.828Z,32.26
2018-03-20T18:19:27.404Z,31.84
2018-03-20T18:21:55.956Z,31.24
2018-03-20T18:24:24.785Z,29.78
2018-03-20T18:26:53.341Z,30.54
2018-03-20T18:29:21.949Z,30.37
2018-03-20T18:31:50.694Z,30.13
2018-03-20T18:34:19.418Z,30.66
2018-03-20T18:36:48.078Z,31.08
2018-03-20T18:39:17.080Z,30.95
2018-03-20T18:41:45.791Z,30.71
2018-03-20T18:44:15.238Z,31.51
2018-03-20T18:46:44.252Z,31.29
2018-03-20T18:49:13.723Z,31.06
2018-03-20T18:51:42.498Z,31.11
2018-03-20T18:54:11.489Z,30.56
2018-03-20T18:56:40.078Z,30.37
2018-03-20T18:59:08.764Z,29.43
2018-03-20T19:01:37.855Z,31.04
2018-03-20T19:04:06.540Z,31.33
2018-03-20T19:06:35.197Z,30.65
2018-03-20T19:09:04.139Z,31.39
2018-03-20T19:11:32.781Z,30.35
2018-03-20T19:14:02.234Z,31.23
2018-03-20T19:16:31.092Z,30.53
2018-03-20T19:18:59.653Z,30.61
2018-03-20T19:21:29.125Z,30.64
2018-03-20T19:23:58.274Z,30.54
2018-03-20T19:26:26.989Z,30.52
2018-03-20T19:28:55.633Z,29.88
2018-03-20T19:31:24.361Z,30.05
2018-03-20T19:33:53.049Z,29.82
2018-03-20T19:36:21.842Z,30.18
2018-03-20T19:38:50.580Z,30.75
2018-03-20T19:41:19.315Z,29.99
2018-03-20T19:43:47.999Z,29.55
2018-03-20T19:46:16.685Z,30.17
2018-03-20T19:48:45.271Z,30.02
2018-03-20T19:51:13.846Z,29.88
2018-03-20T19:53:42.788Z,30.23
2018-03-20T19:56:12.249Z,30.53
2018-03-20T19:58:40.921Z,29.64
2018-03-20T20:01:09.616Z,29.27
2018-03-20T20:03:38.308Z,30.09
2018-03-20T20:06:07.003Z,30.76
2018-03-20T20:08:35.668Z,30.61
2018-03-20T20:11:04.365Z,30.16
2018-03-20T20:13:33.082Z,30.94
2018-03-20T20:16:02.470Z,31.26
2018-03-20T20:18:31.193Z,31.06
2018-03-20T20:20:59.887Z,30.24
2018-03-20T20:23:28.604Z,29.88
2018-03-20T20:25:57.249Z,29.19
2018-03-20T20:28:25.984Z,29.02
2018-03-20T20:30:54.682Z,29.52
2018-03-20T20:33:23.353Z,30.07
2018-03-20T20:35:52.041Z,29.64
2018-03-20T20:38:21.027Z,29.04
2018-03-20T20:40:49.715Z,28.41
2018-03-20T20:43:18.348Z,28.07
2018-03-20T20:45:47.808Z,27.92
2018-03-20T20:48:16.494Z,27.72
2018-03-20T20:50:45.183Z,28.08
2018-03-20T20:53:13.919Z,27.89
2018-03-20T20:55:42.588Z,26.99
2018-03-20T20:58:12.006Z,26.33
2018-03-20T21:00:40.998Z,26.57
2018-03-20T21:03:09.728Z,27.01
2018-03-20T21:05:38.524Z,25.68
2018-03-20T21:08:07.518Z,25.00
2018-03-20T21:10:36.247Z,24.03
2018-03-20T21:13:05.572Z,26.02
2018-03-20T21:15:34.357Z,27.09
2018-03-20T21:18:03.072Z,27.51
2018-03-20T21:20:31.760Z,26.53
2018-03-20T21:23:00.712Z,27.19
2018-03-20T21:25:29.404Z,27.15
2018-03-20T21:27:58.053Z,24.63
2018-03-20T21:30:27.915Z,23.22
2018-03-20T21:32:56.624Z,24.88
2018-03-20T21:35:25.925Z,26.24
2018-03-20T21:37:54.869Z,25.96
2018-03-20T21:40:23.425Z,24.80
2018-03-20T21:42:52.176Z,24.17
2018-03-20T21:45:20.870Z,23.73
2018-03-20T21:47:49.520Z,23.47
2018-03-20T21:50:18.247Z,23.03
2018-03-20T21:52:47.230Z,24.15
2018-03-20T21:55:15.926Z,24.39
2018-03-20T21:57:44.503Z,24.46
2018-03-20T22:00:13.454Z,25.53
2018-03-20T22:02:42.181Z,24.18
2018-03-20T22:05:10.816Z,22.82
2018-03-20T22:07:39.552Z,23.18
2018-03-20T22:10:08.105Z,22.62
2018-03-20T22:12:36.768Z,21.47
2018-03-20T22:15:06.241Z,21.71
2018-03-20T22:17:34.952Z,23.52
2018-03-20T22:20:04.473Z,23.34
2018-03-20T22:22:33.491Z,24.49
2018-03-20T22:25:02.196Z,24.44
2018-03-20T22:27:30.852Z,24.35
2018-03-20T22:29:59.619Z,25.49
2018-03-20T22:32:29.037Z,26.57
2018-03-20T22:34:57.766Z,27.04
2018-03-20T22:37:26.377Z,26.82
2018-03-20T22:39:55.851Z,25.59
2018-03-20T22:42:24.581Z,24.62
2018-03-20T22:44:54.055Z,24.83
2018-03-20T22:47:22.821Z,24.79
2018-03-20T22:49:51.524Z,24.39
2018-03-20T22:52:21.280Z,23.54
2018-03-20T22:54:50.018Z,24.58
2018-03-20T22:57:18.693Z,23.76
2018-03-20T22:59:47.635Z,24.12
2018-03-20T23:02:17.061Z,23.52
2018-03-20T23:04:45.777Z,24.05
2018-03-20T23:07:14.511Z,24.75
2018-03-20T23:09:43.982Z,25.37
2018-03-20T23:12:12.759Z,24.36
2018-03-20T23:14:41.552Z,23.57
2018-03-20T23:17:10.242Z,23.27
2018-03-20T23:19:38.928Z,24.10
2018-03-20T23:22:07.806Z,25.49
2018-03-20T23:24:36.439Z,24.28
2018-03-20T23:27:05.903Z,24.93
2018-03-20T23:29:34.577Z,24.70
2018-03-20T23:32:03.128Z,24.72
2018-03-20T23:34:31.850Z,25.24
2018-03-20T23:37:00.645Z,25.94
2018-03-20T23:39:29.331Z,25.33
2018-03-20T23:41:58.017Z,25.18
2018-03-20T23:44:26.694Z,25.46
2018-03-20T23:46:55.390Z,25.71
2018-03-20T23:49:24.119Z,26.13
2018-03-20T23:51:53.585Z,26.63
2018-03-20T23:54:22.150Z,26.48
2018-03-20T23:56:50.798Z,26.40
2018-03-20T23:59:19.842Z,24.55
